Airfield :
LOGIN :

Register | Disclaimer

   EN    FR    IT 

 










Legend :    VFR   Marginal VFR   IFR   Intensive IFR   Very Intensive IFR
Visi :
Ceiling :
>= 8 km
>= 3000ft
5 to 8 km
1000 to 3000 ft
1500m to 5 km
500 to 1000 ft
800 to 1500m
200 to 500 ft
< 800m
< 200 ft
Symbols :   Thunderstorms  Fog  Heavy snow  Heavy precipitations  Wind > 20 kt
SIGMETs :     Misc.  Thunderstorms  Icing  Turbulence  Mountain Waves  Volcanic Ashes






- Airport Elevation : 461 ft
- IATA code : WIE


ETOU - Wiesbaden Army

CURRENT METAR :
  • 070156Z AUTO 30003KT 9999 CLR 11/07 A3018 RMK AO2 SLP221 T01110074 $

EXPIRED METARs :
  • 070056Z AUTO 00000KT 9999 CLR 11/07 A3018 RMK AO2 SLP222 T01130072 $
  • 062356Z AUTO 27004KT 9999 CLR 12/07 A3017 RMK AO2 SLP218 T01220069 10180 20121 51006 $

TAF AMD TAF ETOU
Valid from the 06 at 19:00 until the 07 at 18:00 UTC


061955Z 0619/0718 31006KT 9999 SCT050 BKN100 QNH3008INS
BECMG 0621/0622 29006KT 9999 SCT040 QNH3012INS
BECMG 0705/0706 25009KT 9999 SCT030 QNH3014INS
BECMG 0710/0711 26010G15KT 9999 BKN060 QNH3007INS TX23/0712Z TN13/0704Z LAST NO AMDS AFT 0620 NEXT 0704



MET'MAP, your aeronautical weather chart ! - Copyright ORBIFLY December 2007 - Disclaimer

ORBIFLY MET'MAP TEAM :

Programming & Development : Alexandra Zaïnal
Concept & original design : Baudouin d'Aumeries
Assistance for programming : Marc-Olivier Méhu
Technical & hardware support : Manuel Goepfert

Contact : metmap@orbifly.com




SOURCES & CREDITS :

   NOAA